createdAt,value
2017-07-18T00:01:47.969Z,82.90
2017-07-18T00:04:16.378Z,82.80
2017-07-18T00:06:44.917Z,82.70
2017-07-18T00:09:13.634Z,82.80
2017-07-18T00:11:41.861Z,82.90
2017-07-18T00:14:10.071Z,83.20
2017-07-18T00:16:39.202Z,83.20
2017-07-18T00:19:07.433Z,83.20
2017-07-18T00:21:35.646Z,83.20
2017-07-18T00:24:03.972Z,83.10
2017-07-18T00:26:32.176Z,83.00
2017-07-18T00:29:01.222Z,83.10
2017-07-18T00:31:29.437Z,83.10
2017-07-18T00:33:57.677Z,83.20
2017-07-18T00:36:25.912Z,83.20
2017-07-18T00:38:54.160Z,83.30
2017-07-18T00:41:22.430Z,83.30
2017-07-18T00:43:51.511Z,83.60
2017-07-18T00:46:19.838Z,83.50
2017-07-18T00:48:48.163Z,83.20
2017-07-18T00:51:16.607Z,83.30
2017-07-18T00:53:44.978Z,83.40
2017-07-18T00:56:13.239Z,83.20
2017-07-18T00:58:41.486Z,83.20
2017-07-18T01:01:09.752Z,83.70
2017-07-18T01:03:37.971Z,83.90
2017-07-18T01:06:06.200Z,83.50
2017-07-18T01:08:34.464Z,83.80
2017-07-18T01:11:03.021Z,83.70
2017-07-18T01:13:31.244Z,83.80
2017-07-18T01:15:59.456Z,84.00
2017-07-18T01:18:27.691Z,84.10
2017-07-18T01:20:55.919Z,83.90
2017-07-18T01:23:24.943Z,84.00
2017-07-18T01:25:53.228Z,83.90
2017-07-18T01:28:21.614Z,83.80
2017-07-18T01:30:49.845Z,83.90
2017-07-18T01:33:19.026Z,83.60
2017-07-18T01:35:47.256Z,83.60
2017-07-18T01:38:15.501Z,83.90
2017-07-18T01:40:43.710Z,83.80
2017-07-18T01:43:11.961Z,83.70
2017-07-18T01:45:40.185Z,83.80
2017-07-18T01:48:08.429Z,83.80
2017-07-18T01:50:36.646Z,83.60
2017-07-18T01:53:05.023Z,83.80
2017-07-18T01:55:33.244Z,83.70
2017-07-18T01:58:01.464Z,83.70
2017-07-18T02:00:29.675Z,83.80
2017-07-18T02:02:58.121Z,83.90
2017-07-18T02:05:26.481Z,83.90
2017-07-18T02:07:54.744Z,84.30
2017-07-18T02:10:23.133Z,84.20
2017-07-18T02:12:51.373Z,84.10
2017-07-18T02:15:19.689Z,84.50
2017-07-18T02:17:47.907Z,84.70
2017-07-18T02:20:16.159Z,85.00
2017-07-18T02:22:44.508Z,85.20
2017-07-18T02:25:13.529Z,85.40
2017-07-18T02:27:42.611Z,85.40
2017-07-18T02:30:10.885Z,85.10
2017-07-18T02:32:39.273Z,85.10
2017-07-18T02:35:08.014Z,85.30
2017-07-18T02:37:36.417Z,85.40
2017-07-18T02:40:04.667Z,85.20
2017-07-18T02:42:32.991Z,85.00
2017-07-18T02:45:01.268Z,85.00
2017-07-18T02:47:29.534Z,85.00
2017-07-18T02:49:57.805Z,85.10
2017-07-18T02:52:26.339Z,85.20
2017-07-18T02:54:54.782Z,85.40
2017-07-18T02:57:23.006Z,85.20
2017-07-18T02:59:51.361Z,85.30
2017-07-18T03:02:19.586Z,86.00
2017-07-18T03:04:47.893Z,85.50
2017-07-18T03:07:16.152Z,85.30
2017-07-18T03:09:45.158Z,85.30
2017-07-18T03:12:13.377Z,85.30
2017-07-18T03:14:41.619Z,85.40
2017-07-18T03:17:09.826Z,85.50
2017-07-18T03:19:38.058Z,85.40
2017-07-18T03:22:06.313Z,85.40
2017-07-18T03:24:35.474Z,85.60
2017-07-18T03:27:03.708Z,85.70
2017-07-18T03:29:32.031Z,85.80
2017-07-18T03:32:00.256Z,86.00
2017-07-18T03:34:28.638Z,86.10
2017-07-18T03:36:56.910Z,85.90
2017-07-18T03:39:25.887Z,85.90
2017-07-18T03:41:54.142Z,85.90
2017-07-18T03:44:22.350Z,85.70
2017-07-18T03:46:50.575Z,85.80
2017-07-18T03:49:18.814Z,85.40
2017-07-18T03:51:47.094Z,85.50
2017-07-18T03:54:15.336Z,85.30
2017-07-18T03:56:43.550Z,85.10
2017-07-18T03:59:11.905Z,85.10
2017-07-18T04:01:40.159Z,85.00
2017-07-18T04:04:08.394Z,84.60
2017-07-18T04:06:36.672Z,84.50
2017-07-18T04:09:04.878Z,84.50
2017-07-18T04:11:33.141Z,84.50
2017-07-18T04:14:01.501Z,84.10
2017-07-18T04:16:29.858Z,84.10
2017-07-18T04:18:58.085Z,84.00
2017-07-18T04:21:26.307Z,83.80
2017-07-18T04:23:54.816Z,83.90
2017-07-18T04:26:23.074Z,83.70
2017-07-18T04:28:51.564Z,83.70
2017-07-18T04:31:19.850Z,83.50
2017-07-18T04:33:48.124Z,83.40
2017-07-18T04:36:16.395Z,83.40
2017-07-18T04:38:44.933Z,83.20
2017-07-18T04:41:13.161Z,83.00
2017-07-18T04:43:41.676Z,82.70
2017-07-18T04:46:09.914Z,82.40
2017-07-18T04:48:38.167Z,82.30
2017-07-18T04:51:06.361Z,81.80
2017-07-18T04:53:34.638Z,81.40
2017-07-18T04:56:02.843Z,81.30
2017-07-18T04:58:32.008Z,81.10
2017-07-18T05:01:00.226Z,80.50
2017-07-18T05:03:28.475Z,80.40
2017-07-18T05:05:56.693Z,80.20
2017-07-18T05:08:25.118Z,79.70
2017-07-18T05:10:53.384Z,79.40
2017-07-18T05:13:21.939Z,79.40
2017-07-18T05:15:50.258Z,79.10
2017-07-18T05:18:18.486Z,79.10
2017-07-18T05:20:46.709Z,78.70
2017-07-18T05:23:15.158Z,77.70
2017-07-18T05:25:43.805Z,77.10
2017-07-18T05:28:12.002Z,76.10
2017-07-18T05:30:40.249Z,75.10
2017-07-18T05:33:08.478Z,74.40
2017-07-18T05:35:36.708Z,73.70
2017-07-18T05:38:04.950Z,73.20
2017-07-18T05:40:33.165Z,72.90
2017-07-18T05:43:01.554Z,73.20
2017-07-18T05:45:29.793Z,72.40
2017-07-18T05:47:58.786Z,71.40
2017-07-18T05:50:27.030Z,71.90
2017-07-18T05:52:55.254Z,69.50
2017-07-18T05:55:23.548Z,66.40
2017-07-18T05:57:52.515Z,57.70
2017-07-18T06:00:20.752Z,57.70
2017-07-18T06:02:48.965Z,54.60
2017-07-18T06:05:17.198Z,51.20
2017-07-18T06:07:45.425Z,49.60
2017-07-18T06:10:13.645Z,47.20
2017-07-18T06:12:41.896Z,44.50
2017-07-18T06:15:10.913Z,42.10
2017-07-18T06:17:39.148Z,41.90
2017-07-18T06:20:07.373Z,41.40
2017-07-18T06:22:35.700Z,39.00
2017-07-18T06:25:04.138Z,37.70
2017-07-18T06:27:32.374Z,36.50
2017-07-18T06:30:01.553Z,34.30
2017-07-18T06:32:29.794Z,34.20
2017-07-18T06:34:58.013Z,34.90
2017-07-18T06:37:26.988Z,32.50
2017-07-18T06:39:55.230Z,32.40
2017-07-18T06:42:23.459Z,33.80
2017-07-18T06:44:52.478Z,34.10
2017-07-18T06:47:20.685Z,33.50
2017-07-18T06:49:48.884Z,30.80
2017-07-18T06:52:17.095Z,32.00
2017-07-18T06:54:45.652Z,31.50
2017-07-18T06:57:13.857Z,30.90
2017-07-18T06:59:42.053Z,31.60
2017-07-18T07:02:10.330Z,31.50
2017-07-18T07:04:38.539Z,32.40
2017-07-18T07:07:06.868Z,30.70
2017-07-18T07:09:35.833Z,33.00
2017-07-18T07:12:04.067Z,33.10
2017-07-18T07:14:32.290Z,33.00
2017-07-18T07:17:00.615Z,33.80
2017-07-18T07:19:29.007Z,30.70
2017-07-18T07:21:57.919Z,29.60
2017-07-18T07:24:26.292Z,30.00
2017-07-18T07:26:54.704Z,28.80
2017-07-18T07:29:23.403Z,28.30
2017-07-18T07:31:52.632Z,29.40
2017-07-18T07:34:21.415Z,29.40
2017-07-18T07:36:49.874Z,28.80
2017-07-18T07:39:19.270Z,30.70
2017-07-18T07:41:47.661Z,30.00
2017-07-18T07:44:16.656Z,27.60
2017-07-18T07:46:45.020Z,27.60
2017-07-18T07:49:14.010Z,30.10
2017-07-18T07:51:42.210Z,30.00
2017-07-18T07:54:11.225Z,30.40
2017-07-18T07:56:39.428Z,30.40
2017-07-18T07:59:07.638Z,32.30
2017-07-18T08:01:36.630Z,30.00
2017-07-18T08:04:04.839Z,29.60
2017-07-18T08:06:33.200Z,28.10
2017-07-18T08:09:01.431Z,28.20
2017-07-18T08:11:29.639Z,29.80
2017-07-18T08:13:57.841Z,29.80
2017-07-18T08:16:26.061Z,27.40
2017-07-18T08:18:54.284Z,26.00
2017-07-18T08:21:23.268Z,26.40
2017-07-18T08:23:51.505Z,26.40
2017-07-18T08:26:19.709Z,26.20
2017-07-18T08:28:47.945Z,25.60
2017-07-18T08:31:16.164Z,26.40
2017-07-18T08:33:44.615Z,26.20
2017-07-18T08:36:12.821Z,26.10
2017-07-18T08:38:41.042Z,25.60
2017-07-18T08:41:09.304Z,25.80
2017-07-18T08:43:37.541Z,25.00
2017-07-18T08:46:05.746Z,27.50
2017-07-18T08:48:34.763Z,26.40
2017-07-18T08:51:03.055Z,26.30
2017-07-18T08:53:31.252Z,25.30
2017-07-18T08:55:59.489Z,26.70
2017-07-18T08:58:27.707Z,27.80
2017-07-18T09:00:55.933Z,26.40
2017-07-18T09:03:24.181Z,26.20
2017-07-18T09:05:52.683Z,26.30
2017-07-18T09:08:20.925Z,25.80
2017-07-18T09:10:49.150Z,25.40
2017-07-18T09:13:18.137Z,26.80
2017-07-18T09:15:46.514Z,26.80
2017-07-18T09:18:15.496Z,26.20
2017-07-18T09:20:43.768Z,26.20
2017-07-18T09:23:11.984Z,25.60
2017-07-18T09:25:40.236Z,24.60
2017-07-18T09:28:09.243Z,26.10
2017-07-18T09:30:37.473Z,26.10
2017-07-18T09:33:05.701Z,25.40
2017-07-18T09:35:33.933Z,25.40
2017-07-18T09:38:02.144Z,26.50
2017-07-18T09:40:30.371Z,25.30
2017-07-18T09:42:58.645Z,25.20
2017-07-18T09:45:26.900Z,25.40
2017-07-18T09:47:55.182Z,25.50
2017-07-18T09:50:23.393Z,25.50
2017-07-18T09:52:51.632Z,26.00
2017-07-18T09:55:19.825Z,26.40
2017-07-18T09:57:48.102Z,25.40
2017-07-18T10:00:16.325Z,24.60
2017-07-18T10:02:45.324Z,23.20
2017-07-18T10:05:13.689Z,23.20
2017-07-18T10:07:41.996Z,23.40
2017-07-18T10:10:10.269Z,23.20
2017-07-18T10:12:38.519Z,23.50
2017-07-18T10:15:06.745Z,23.60
2017-07-18T10:17:35.033Z,25.20
2017-07-18T10:20:03.253Z,23.60
2017-07-18T10:22:31.500Z,24.90
2017-07-18T10:24:59.713Z,26.30
2017-07-18T10:27:28.017Z,24.20
2017-07-18T10:29:56.244Z,24.40
2017-07-18T10:32:25.572Z,26.30
2017-07-18T10:34:54.554Z,26.00
2017-07-18T10:37:22.773Z,26.00
2017-07-18T10:39:50.968Z,26.40
2017-07-18T10:42:19.370Z,25.40
2017-07-18T10:44:47.616Z,26.80
2017-07-18T10:47:16.378Z,25.90
2017-07-18T10:49:44.633Z,25.50
2017-07-18T10:52:12.884Z,25.60
2017-07-18T10:54:41.105Z,25.50
2017-07-18T10:57:09.306Z,27.20
2017-07-18T10:59:37.534Z,28.00
2017-07-18T11:02:05.781Z,27.80
2017-07-18T11:04:34.040Z,29.50
2017-07-18T11:07:02.249Z,29.50
2017-07-18T11:09:30.624Z,27.20
2017-07-18T11:11:58.940Z,26.80
2017-07-18T11:14:27.175Z,26.90
2017-07-18T11:16:55.400Z,27.60
2017-07-18T11:19:23.634Z,28.30
2017-07-18T11:21:53.476Z,31.90
2017-07-18T11:24:21.697Z,31.80
2017-07-18T11:26:50.208Z,31.50
2017-07-18T11:29:18.423Z,32.60
2017-07-18T11:31:46.627Z,34.00
2017-07-18T11:34:14.904Z,35.10
2017-07-18T11:36:43.234Z,36.50
2017-07-18T11:39:12.225Z,36.70
2017-07-18T11:41:40.433Z,36.40
2017-07-18T11:44:08.905Z,38.50
2017-07-18T11:46:37.900Z,38.30
2017-07-18T11:49:06.185Z,38.20
2017-07-18T11:51:34.391Z,38.40
2017-07-18T11:54:02.622Z,38.20
2017-07-18T11:56:31.624Z,39.80
2017-07-18T11:59:00.092Z,40.00
2017-07-18T12:01:28.485Z,38.50
2017-07-18T12:03:57.462Z,37.50
2017-07-18T12:06:25.692Z,37.40
2017-07-18T12:08:53.897Z,43.40
2017-07-18T12:11:22.135Z,36.90
2017-07-18T12:13:50.332Z,39.50
2017-07-18T12:16:19.018Z,36.00
2017-07-18T12:18:59.112Z,36.10
2017-07-18T12:21:27.911Z,36.50
2017-07-18T12:23:56.133Z,37.00
2017-07-18T12:26:24.377Z,36.50
2017-07-18T12:28:52.608Z,37.10
2017-07-18T12:31:21.272Z,36.70
2017-07-18T12:33:49.632Z,37.50
2017-07-18T12:36:17.893Z,36.90
2017-07-18T12:38:46.264Z,37.10
2017-07-18T12:41:14.479Z,36.10
2017-07-18T12:43:42.928Z,37.80
2017-07-18T12:46:11.937Z,36.40
2017-07-18T12:48:40.144Z,36.40
2017-07-18T12:51:08.436Z,37.70
2017-07-18T12:53:36.668Z,37.10
2017-07-18T12:56:04.901Z,39.00
2017-07-18T12:58:33.121Z,36.50
2017-07-18T13:01:01.339Z,38.60
2017-07-18T13:03:29.563Z,37.40
2017-07-18T13:05:57.960Z,37.20
2017-07-18T13:08:26.350Z,38.70
2017-07-18T13:10:55.097Z,38.40
2017-07-18T13:13:23.282Z,36.60
2017-07-18T13:15:52.265Z,39.00
2017-07-18T13:18:20.502Z,38.90
2017-07-18T13:20:48.718Z,36.60
2017-07-18T13:23:17.722Z,37.10
2017-07-18T13:25:45.989Z,37.10
2017-07-18T13:28:14.193Z,36.00
2017-07-18T13:30:42.430Z,38.00
2017-07-18T13:33:10.628Z,35.20
2017-07-18T13:35:38.836Z,34.80
2017-07-18T13:38:07.107Z,36.10
2017-07-18T13:40:35.414Z,36.20
2017-07-18T13:43:03.650Z,35.50
2017-07-18T13:45:31.893Z,37.30
2017-07-18T13:48:00.125Z,38.00
2017-07-18T13:50:28.462Z,36.00
2017-07-18T13:52:57.430Z,36.30
2017-07-18T13:55:25.680Z,36.30
2017-07-18T13:57:53.916Z,36.80
2017-07-18T14:00:23.117Z,37.10
2017-07-18T14:02:51.509Z,37.10
2017-07-18T14:05:19.710Z,35.70
2017-07-18T14:07:48.089Z,37.20
2017-07-18T14:10:16.311Z,34.70
2017-07-18T14:12:44.529Z,37.90
2017-07-18T14:15:12.763Z,34.80
2017-07-18T14:17:40.990Z,35.20
2017-07-18T14:20:09.218Z,35.40
2017-07-18T14:22:38.215Z,34.80
2017-07-18T14:25:06.449Z,35.10
2017-07-18T14:27:34.921Z,35.60
2017-07-18T14:30:03.146Z,36.20
2017-07-18T14:32:31.457Z,37.10
2017-07-18T14:34:59.692Z,35.40
2017-07-18T14:37:28.036Z,35.70
2017-07-18T14:39:56.782Z,36.80
2017-07-18T14:42:25.003Z,37.30
2017-07-18T14:44:53.328Z,36.50
2017-07-18T14:47:21.517Z,36.50
2017-07-18T14:49:49.922Z,37.90
2017-07-18T14:52:18.126Z,37.80
2017-07-18T14:54:46.351Z,38.30
2017-07-18T14:57:15.327Z,36.60
2017-07-18T14:59:43.552Z,36.60
2017-07-18T15:02:11.802Z,35.30
2017-07-18T15:04:40.145Z,35.70
2017-07-18T15:07:08.370Z,36.10
2017-07-18T15:09:36.585Z,36.90
2017-07-18T15:12:04.814Z,35.50
2017-07-18T15:14:33.079Z,38.20
2017-07-18T15:17:01.273Z,35.90
2017-07-18T15:19:29.524Z,35.20
2017-07-18T15:21:57.828Z,36.00
2017-07-18T15:24:26.085Z,35.00
2017-07-18T15:26:54.473Z,35.30
2017-07-18T15:29:22.697Z,35.70
2017-07-18T15:31:50.928Z,35.50
2017-07-18T15:34:19.970Z,35.30
2017-07-18T15:36:48.193Z,35.30
2017-07-18T15:39:16.423Z,34.70
2017-07-18T15:41:44.638Z,35.40
2017-07-18T15:44:13.632Z,35.30
2017-07-18T15:46:41.842Z,35.30
2017-07-18T15:49:10.318Z,34.30
2017-07-18T15:51:38.528Z,36.80
2017-07-18T15:54:06.936Z,35.60
2017-07-18T15:56:35.173Z,35.40
2017-07-18T15:59:03.429Z,35.60
2017-07-18T16:01:31.661Z,36.20
2017-07-18T16:04:00.063Z,36.70
2017-07-18T16:06:28.282Z,37.10
2017-07-18T16:08:56.504Z,36.40
2017-07-18T16:11:24.785Z,37.50
2017-07-18T16:13:53.781Z,37.10
2017-07-18T16:16:21.982Z,36.40
2017-07-18T16:18:50.229Z,37.10
2017-07-18T16:21:18.455Z,37.80
2017-07-18T16:23:46.670Z,37.10
2017-07-18T16:26:14.987Z,36.40
2017-07-18T16:28:43.275Z,36.70
2017-07-18T16:31:11.685Z,37.00
2017-07-18T16:33:40.062Z,37.80
2017-07-18T16:36:08.260Z,36.70
2017-07-18T16:38:36.504Z,37.40
2017-07-18T16:41:04.712Z,37.70
2017-07-18T16:43:32.933Z,36.30
2017-07-18T16:46:01.314Z,37.00
2017-07-18T16:48:30.484Z,38.80
2017-07-18T16:50:58.661Z,38.70
2017-07-18T16:53:26.951Z,38.00
2017-07-18T16:55:55.210Z,37.60
2017-07-18T16:58:23.430Z,38.20
2017-07-18T17:00:51.659Z,38.80
2017-07-18T17:03:19.976Z,41.20
2017-07-18T17:05:50.620Z,39.70
2017-07-18T17:08:18.885Z,37.90
2017-07-18T17:10:47.182Z,37.90
2017-07-18T17:13:15.391Z,40.40
2017-07-18T17:15:43.714Z,39.60
2017-07-18T17:18:11.987Z,39.90
2017-07-18T17:20:40.219Z,38.90
2017-07-18T17:23:08.421Z,40.90
2017-07-18T17:25:36.664Z,39.90
2017-07-18T17:28:04.909Z,41.10
2017-07-18T17:30:33.121Z,40.90
2017-07-18T17:33:01.545Z,41.70
2017-07-18T17:35:29.797Z,41.90
2017-07-18T17:37:58.026Z,42.90
2017-07-18T17:40:26.431Z,44.70
2017-07-18T17:42:54.678Z,44.10
2017-07-18T17:45:23.181Z,43.10
2017-07-18T17:47:51.573Z,47.50
2017-07-18T17:50:20.349Z,48.10
2017-07-18T17:52:48.704Z,49.30
2017-07-18T17:55:17.370Z,50.00
2017-07-18T17:57:45.550Z,50.00
2017-07-18T18:00:14.554Z,51.10
2017-07-18T18:02:43.025Z,51.10
2017-07-18T18:05:12.230Z,52.90
2017-07-18T18:07:40.438Z,52.80
2017-07-18T18:10:08.678Z,53.80
2017-07-18T18:12:37.657Z,54.40
2017-07-18T18:15:05.887Z,54.40
2017-07-18T18:17:34.377Z,55.80
2017-07-18T18:20:02.600Z,55.90
2017-07-18T18:22:31.614Z,58.20
2017-07-18T18:24:59.855Z,58.20
2017-07-18T18:27:28.105Z,57.80
2017-07-18T18:29:56.333Z,58.00
2017-07-18T18:32:24.537Z,58.20
2017-07-18T18:34:52.760Z,58.10
2017-07-18T18:37:21.049Z,58.00
2017-07-18T18:39:49.423Z,58.50
2017-07-18T18:42:18.010Z,59.00
2017-07-18T18:44:46.244Z,59.60
2017-07-18T18:47:14.468Z,59.60
2017-07-18T18:49:42.688Z,59.60
2017-07-18T18:52:11.216Z,59.70
2017-07-18T18:54:39.486Z,60.10
2017-07-18T18:57:07.688Z,60.50
2017-07-18T18:59:36.777Z,61.00
2017-07-18T19:02:05.774Z,63.00
2017-07-18T19:04:33.988Z,62.00
2017-07-18T19:07:02.235Z,62.00
2017-07-18T19:09:30.449Z,62.30
2017-07-18T19:11:58.853Z,62.20
2017-07-18T19:14:27.260Z,63.10
2017-07-18T19:16:55.478Z,63.00
2017-07-18T19:19:23.935Z,63.70
2017-07-18T19:21:52.180Z,64.10
2017-07-18T19:24:20.557Z,64.30
2017-07-18T19:26:48.798Z,64.50
2017-07-18T19:29:17.016Z,64.50
2017-07-18T19:31:45.280Z,65.00
2017-07-18T19:34:13.485Z,65.40
2017-07-18T19:36:42.489Z,66.10
2017-07-18T19:39:10.925Z,66.10
2017-07-18T19:41:39.390Z,66.50
2017-07-18T19:44:07.681Z,66.90
2017-07-18T19:46:35.929Z,67.30
2017-07-18T19:49:04.481Z,67.60
2017-07-18T19:51:32.748Z,68.20
2017-07-18T19:54:01.192Z,68.40
2017-07-18T19:56:29.517Z,68.10
2017-07-18T19:58:57.690Z,68.30
2017-07-18T20:01:25.969Z,68.60
2017-07-18T20:03:54.211Z,68.90
2017-07-18T20:06:22.580Z,69.10
2017-07-18T20:08:50.836Z,69.60
2017-07-18T20:11:19.181Z,69.80
2017-07-18T20:13:47.418Z,69.70
2017-07-18T20:16:16.166Z,69.90
2017-07-18T20:18:44.390Z,70.10
2017-07-18T20:21:12.662Z,70.20
2017-07-18T20:23:44.886Z,70.30
2017-07-18T20:26:13.172Z,70.70
2017-07-18T20:28:41.455Z,70.70
2017-07-18T20:31:09.826Z,70.50
2017-07-18T20:33:38.858Z,70.80
2017-07-18T20:36:07.088Z,70.60
2017-07-18T20:38:35.396Z,70.90
2017-07-18T20:41:03.990Z,71.00
2017-07-18T20:43:32.943Z,71.60
2017-07-18T20:46:01.455Z,71.30
2017-07-18T20:48:29.695Z,71.20
2017-07-18T20:50:58.022Z,71.60
2017-07-18T20:53:26.360Z,71.70
2017-07-18T20:55:55.368Z,71.80
2017-07-18T20:58:23.787Z,71.80
2017-07-18T21:00:52.037Z,72.10
2017-07-18T21:03:20.337Z,72.00
2017-07-18T21:05:48.650Z,71.70
2017-07-18T21:08:16.840Z,71.90
2017-07-18T21:10:45.929Z,71.90
2017-07-18T21:13:14.169Z,71.80
2017-07-18T21:15:42.405Z,71.70
2017-07-18T21:18:10.638Z,72.30
2017-07-18T21:20:38.855Z,72.20
2017-07-18T21:23:07.084Z,72.50
2017-07-18T21:25:35.316Z,72.80
2017-07-18T21:28:04.290Z,72.90
2017-07-18T21:30:32.538Z,72.60
2017-07-18T21:33:00.802Z,74.10
2017-07-18T21:35:29.098Z,73.30
2017-07-18T21:37:57.288Z,73.30
2017-07-18T21:40:25.505Z,73.20
2017-07-18T21:42:53.800Z,72.00
2017-07-18T21:45:22.056Z,72.30
2017-07-18T21:47:51.060Z,73.80
2017-07-18T21:50:19.553Z,73.10
2017-07-18T21:52:48.060Z,72.90
2017-07-18T21:55:16.282Z,72.10
2017-07-18T21:57:44.876Z,72.40
2017-07-18T22:00:13.086Z,73.30
2017-07-18T22:02:41.373Z,73.80
2017-07-18T22:05:09.617Z,72.70
2017-07-18T22:07:37.919Z,73.00
2017-07-18T22:10:06.417Z,73.20
2017-07-18T22:12:34.637Z,73.00
2017-07-18T22:15:02.857Z,73.00
2017-07-18T22:17:31.085Z,73.60
2017-07-18T22:19:59.325Z,73.00
2017-07-18T22:22:27.540Z,72.60
2017-07-18T22:24:55.786Z,73.10
2017-07-18T22:27:24.006Z,73.00
2017-07-18T22:29:52.256Z,72.60
2017-07-18T22:32:20.473Z,73.00
2017-07-18T22:34:49.473Z,73.40
2017-07-18T22:37:17.717Z,73.20
2017-07-18T22:39:45.926Z,73.60
2017-07-18T22:42:14.282Z,73.40
2017-07-18T22:44:42.973Z,73.40
2017-07-18T22:47:11.165Z,73.90
2017-07-18T22:49:39.391Z,73.80
2017-07-18T22:52:07.928Z,73.90
2017-07-18T22:54:36.220Z,73.60
2017-07-18T22:57:04.638Z,74.20
2017-07-18T22:59:32.869Z,74.30
2017-07-18T23:02:01.117Z,74.10
2017-07-18T23:04:29.548Z,74.10
2017-07-18T23:06:57.814Z,74.50
2017-07-18T23:09:26.020Z,74.50
2017-07-18T23:11:54.236Z,74.60
2017-07-18T23:14:22.470Z,74.10
2017-07-18T23:16:50.681Z,74.00
2017-07-18T23:19:18.997Z,74.60
2017-07-18T23:21:47.205Z,74.60
2017-07-18T23:24:15.425Z,75.20
2017-07-18T23:26:43.652Z,74.70
2017-07-18T23:29:11.904Z,74.50
2017-07-18T23:31:40.145Z,75.10
2017-07-18T23:34:09.141Z,75.80
2017-07-18T23:36:38.094Z,75.00
2017-07-18T23:39:06.510Z,75.00
2017-07-18T23:41:34.773Z,75.40
2017-07-18T23:44:03.200Z,75.30
2017-07-18T23:46:31.462Z,75.60
2017-07-18T23:48:59.700Z,75.60
2017-07-18T23:51:27.912Z,75.40
2017-07-18T23:53:56.166Z,75.40
2017-07-18T23:56:24.628Z,75.40
2017-07-18T23:58:52.853Z,75.70
